Αρχική σελίδα
METAR-TAF:

METAR-TAF

Αεροδρόμια :

Ματζούρο, Νήσοι Μάρσαλ

γεωγραφικό πλάτος: 07-04N, γεωγραφικό μήκος: 171-17E, υψόμετρο: 2 μ

Παρών καιρός

Η αναφορά έγινε 4 ώρες και 45 λεπτά πριν, στις 22:56 UTC
Άνεμος 5 kt από Α/NA
Θερμοκρασία 30°C
Υγρασία 75%
Πίεση 1012 hPa
Ορατότητα: 24.1 χλμ
Λίγα νέφη σε ύψος 1500 πόδια
Διάσπαρτα νέφη σε ύψος 5000 πόδια
Διάσπαρτα νέφη σε ύψος 12000 πόδια
Αρκετά νέφη σε ύψος 30000 πόδια

METAR: PKMJ 192256Z 12005KT 15SM FEW015 SCT050 SCT120 BKN300 30/25 A2988 RMK LAST

Χρόνος: 15:41 (03:41 UTC)

Πρόγνωση Καιρού

Η αναφορά έγινε 4 ώρες και 11 λεπτά πριν, στις 23:30 UTC
Η πρόγνωση ισχύει από τις 20 στις 00 UTC έως τις 20 στις 24 UTC
Άνεμος 9 kt από ΝA
Ορατότητα: 10 χλμ
Λίγα νέφη σε ύψος 1800 πόδια
Διάσπαρτα νέφη σε ύψος 5000 πόδια
Διάσπαρτα νέφη σε ύψος 12000 πόδια
Όμβροι σε κοντινή απόσταση

TAF: PKMJ 192330Z 2000/2024 14009KT P6SM VCSH FEW018 SCT050 SCT120

Μετεωρολογικές αναφορές και προγνώσεις για περισσότερα από 4000 αεροδρόμια (δελτία METAR και TAF).

Οι διαθέσιμοι σταθμοί απεικονίζονται στο χάρτη με κίτρινες και κόκκινες κουκκίδες.

Μετακινήστε το ποντίκι πάνω από τις κουκκίδες για να δείτε το όνομα του σταθμού.

Στη συνέχεια, κάντε κλικ για να δείτε τις μετεωρολογικές αναφορές και τις προγνώσεις καιρού.

Για να αλλάξετε το χάρτη: κάντε κλικ στα πράσινα κουμπιά με τον μαύρο σταυρό για να ζουμάρετε, στο πράσινο κουμπί με την παύλα για να αφαιρέσετε το ζουμ ή στα πράσινα βέλη για να αντιπαραβάλλετε χάρτες.


METAR-TAF: